createdAt,value
2019-04-16T00:03:37.033Z,10.61
2019-04-16T00:19:34.728Z,10.32
2019-04-16T00:28:31.661Z,10.25
2019-04-16T00:34:33.775Z,10.10
2019-04-16T00:37:33.432Z,10.08
2019-04-16T00:40:33.068Z,10.07
2019-04-16T00:43:32.673Z,9.92
2019-04-16T00:46:31.869Z,9.89
2019-04-16T00:49:01.375Z,9.86
2019-04-16T00:54:34.213Z,9.72
2019-04-16T00:57:33.365Z,9.75
2019-04-16T01:04:31.823Z,9.63
2019-04-16T01:07:34.208Z,9.62
2019-04-16T01:10:33.849Z,9.58
2019-04-16T01:13:34.488Z,9.45
2019-04-16T01:16:33.992Z,9.49
2019-04-16T01:25:33.520Z,9.37
2019-04-16T01:28:35.188Z,9.36
2019-04-16T01:41:32.331Z,9.16
2019-04-16T01:44:31.857Z,9.15
2019-04-16T01:47:37.092Z,9.11
2019-04-16T01:50:34.167Z,9.02
2019-04-16T01:59:35.608Z,8.96
2019-04-16T02:02:34.093Z,8.98
2019-04-16T02:05:33.253Z,8.95
2019-04-16T02:08:32.677Z,8.91
2019-04-16T02:11:32.347Z,8.88
2019-04-16T02:14:31.707Z,8.83
2019-04-16T02:17:36.087Z,8.87
2019-04-16T02:20:32.324Z,8.79
2019-04-16T02:23:31.635Z,8.79
2019-04-16T02:26:34.121Z,8.85
2019-04-16T02:29:33.710Z,8.74
2019-04-16T02:32:33.168Z,8.74
2019-04-16T02:35:32.527Z,8.72
2019-04-16T02:38:32.198Z,8.67
2019-04-16T02:41:31.854Z,8.61
2019-04-16T02:44:34.159Z,8.56
2019-04-16T02:47:40.235Z,8.45
2019-04-16T02:50:40.658Z,8.55
2019-04-16T02:53:28.960Z,8.52
2019-04-16T02:56:31.570Z,8.43
2019-04-16T02:59:31.540Z,8.32
2019-04-16T03:02:34.955Z,8.23
2019-04-16T03:05:29.827Z,8.23
2019-04-16T03:08:01.481Z,8.11
2019-04-16T03:10:30.697Z,8.01
2019-04-16T03:13:00.062Z,7.97
2019-04-16T03:15:47.291Z,7.91
2019-04-16T03:18:18.235Z,7.82
2019-04-16T03:20:47.716Z,7.70
2019-04-16T03:23:17.099Z,7.66
2019-04-16T03:25:47.748Z,7.70
2019-04-16T03:28:17.252Z,7.66
2019-04-16T03:30:46.579Z,7.45
2019-04-16T03:33:16.495Z,7.54
2019-04-16T03:35:46.057Z,7.55
2019-04-16T03:38:15.379Z,7.50
2019-04-16T03:41:34.061Z,7.61
2019-04-16T03:50:32.576Z,7.60
2019-04-16T03:53:32.274Z,7.49
2019-04-16T03:56:31.891Z,7.51
2019-04-16T04:16:34.474Z,7.53
2019-04-16T04:30:31.155Z,7.33
2019-04-16T04:40:43.767Z,7.39
2019-04-16T04:50:32.451Z,7.38
2019-04-16T05:09:35.192Z,7.58
2019-04-16T05:18:34.475Z,7.88
2019-04-16T05:21:34.384Z,7.89
2019-04-16T05:24:33.752Z,7.98
2019-04-16T05:31:31.116Z,8.06
2019-04-16T05:38:32.419Z,8.20
2019-04-16T05:41:31.896Z,8.27
2019-04-16T05:44:34.534Z,8.36
2019-04-16T05:47:33.822Z,8.41
2019-04-16T05:53:37.365Z,8.53
2019-04-16T06:27:14.351Z,9.56
2019-04-16T06:30:05.161Z,9.70
2019-04-16T06:32:52.150Z,9.81
2019-04-16T06:35:44.021Z,9.86
2019-04-16T06:38:17.499Z,9.94
2019-04-16T06:41:05.828Z,10.09
2019-04-16T06:43:41.940Z,10.18
2019-04-16T06:50:04.130Z,10.56
2019-04-16T06:52:40.148Z,10.58
2019-04-16T06:55:34.919Z,10.58
2019-04-16T06:58:22.563Z,10.84
2019-04-16T07:01:23.117Z,10.98
2019-04-16T07:04:01.309Z,11.08
2019-04-16T07:06:43.868Z,11.06
2019-04-16T07:09:24.236Z,11.23
2019-04-16T07:11:54.668Z,11.46
2019-04-16T07:14:23.125Z,11.61
2019-04-16T07:16:52.784Z,11.78
2019-04-16T07:19:22.128Z,11.68
2019-04-16T07:21:51.596Z,11.72
2019-04-16T07:24:23.152Z,12.02
2019-04-16T07:26:55.805Z,11.98
2019-04-16T07:29:46.620Z,12.08
2019-04-16T07:32:33.775Z,11.93
2019-04-16T07:35:19.558Z,12.06
2019-04-16T07:38:16.974Z,12.12
2019-04-16T07:41:20.819Z,12.37
2019-04-16T07:44:10.233Z,12.43
2019-04-16T07:47:08.387Z,12.45
2019-04-16T07:49:50.964Z,12.47
2019-04-16T07:52:51.332Z,12.54
2019-04-16T07:55:38.265Z,12.68
2019-04-16T07:58:07.617Z,12.60
2019-04-16T08:00:40.282Z,12.80
2019-04-16T08:03:08.064Z,13.04
2019-04-16T08:05:37.825Z,13.39
2019-04-16T08:08:08.553Z,13.34
2019-04-16T08:10:37.904Z,13.52
2019-04-16T08:13:27.410Z,13.42
2019-04-16T08:15:57.558Z,13.65
2019-04-16T08:18:26.914Z,13.68
2019-04-16T08:21:01.635Z,13.78
2019-04-16T08:23:31.009Z,13.77
2019-04-16T08:26:04.078Z,13.88
2019-04-16T08:28:32.403Z,13.84
2019-04-16T08:31:02.387Z,14.11
2019-04-16T08:33:31.816Z,14.29
2019-04-16T08:36:01.181Z,14.11
2019-04-16T08:38:34.040Z,14.31
2019-04-16T08:41:02.929Z,14.66
2019-04-16T08:43:32.271Z,14.87
2019-04-16T08:46:01.736Z,14.78
2019-04-16T08:48:31.071Z,14.29
2019-04-16T08:51:00.519Z,14.54
2019-04-16T08:53:29.866Z,14.67
2019-04-16T08:55:59.224Z,14.86
2019-04-16T08:58:28.514Z,15.00
2019-04-16T09:00:57.940Z,15.21
2019-04-16T09:03:30.144Z,14.75
2019-04-16T09:05:58.391Z,15.14
2019-04-16T09:08:33.131Z,15.56
2019-04-16T09:11:03.355Z,15.20
2019-04-16T09:13:36.942Z,15.18
2019-04-16T09:16:06.338Z,15.62
2019-04-16T09:18:42.259Z,15.37
2019-04-16T09:21:11.740Z,15.68
2019-04-16T09:23:42.754Z,15.79
2019-04-16T09:26:25.919Z,15.72
2019-04-16T09:29:13.108Z,15.85
2019-04-16T09:32:06.708Z,16.10
2019-04-16T09:35:09.720Z,15.94
2019-04-16T09:37:47.198Z,16.12
2019-04-16T09:40:35.421Z,16.04
2019-04-16T09:43:16.576Z,16.30
2019-04-16T09:45:40.314Z,16.77
2019-04-16T09:48:09.691Z,16.69
2019-04-16T09:50:43.157Z,16.65
2019-04-16T09:53:10.129Z,16.50
2019-04-16T09:55:39.451Z,16.54
2019-04-16T09:58:21.595Z,16.96
2019-04-16T10:01:05.513Z,17.10
2019-04-16T10:03:39.987Z,17.20
2019-04-16T10:06:09.328Z,17.11
2019-04-16T10:08:38.715Z,16.97
2019-04-16T10:11:08.058Z,17.39
2019-04-16T10:13:37.395Z,17.42
2019-04-16T10:16:06.939Z,17.23
2019-04-16T10:18:36.286Z,17.81
2019-04-16T10:21:05.782Z,17.56
2019-04-16T10:24:03.316Z,17.85
2019-04-16T10:26:32.716Z,17.75
2019-04-16T10:29:06.028Z,17.90
2019-04-16T10:31:35.367Z,17.90
2019-04-16T10:34:07.900Z,17.89
2019-04-16T10:36:38.143Z,18.15
2019-04-16T10:39:16.270Z,18.29
2019-04-16T10:41:59.778Z,18.34
2019-04-16T10:44:45.664Z,18.33
2019-04-16T10:47:28.205Z,18.23
2019-04-16T10:50:23.208Z,18.67
2019-04-16T10:53:17.352Z,18.75
2019-04-16T10:56:03.124Z,18.70
2019-04-16T10:58:50.143Z,18.55
2019-04-16T11:01:44.529Z,18.77
2019-04-16T11:04:32.840Z,18.96
2019-04-16T11:07:06.646Z,19.04
2019-04-16T11:09:35.983Z,19.25
2019-04-16T11:12:06.028Z,19.21
2019-04-16T11:14:35.575Z,18.98
2019-04-16T11:17:04.973Z,19.15
2019-04-16T11:19:34.345Z,19.22
2019-04-16T11:22:05.101Z,19.14
2019-04-16T11:24:34.960Z,19.50
2019-04-16T11:27:04.330Z,19.15
2019-04-16T11:29:33.930Z,19.79
2019-04-16T11:32:03.992Z,19.62
2019-04-16T11:34:33.421Z,19.38
2019-04-16T11:37:07.439Z,19.60
2019-04-16T11:39:34.155Z,19.85
2019-04-16T11:42:03.685Z,19.78
2019-04-16T11:44:33.060Z,19.93
2019-04-16T11:47:03.757Z,19.90
2019-04-16T12:29:04.267Z,20.55
2019-04-16T13:20:47.397Z,21.56
2019-04-16T13:23:38.356Z,21.62
2019-04-16T13:26:15.249Z,21.77
2019-04-16T13:28:44.580Z,22.06
2019-04-16T13:31:13.863Z,21.91
2019-04-16T13:33:43.569Z,22.27
2019-04-16T13:36:14.427Z,22.20
2019-04-16T13:38:48.179Z,22.18
2019-04-16T13:41:17.667Z,22.23
2019-04-16T13:43:51.714Z,22.17
2019-04-16T13:46:21.055Z,21.89
2019-04-16T13:49:01.572Z,21.82
2019-04-16T13:51:35.263Z,21.96
2019-04-16T13:54:23.452Z,21.63
2019-04-16T13:56:55.374Z,21.88
2019-04-16T13:59:52.903Z,21.88
2019-04-16T14:02:28.122Z,21.72
2019-04-16T14:05:03.052Z,21.85
2019-04-16T14:07:28.476Z,21.79
2019-04-16T14:09:57.807Z,21.78
2019-04-16T14:12:41.251Z,21.94
2019-04-16T14:14:58.173Z,21.78
2019-04-16T14:17:27.928Z,21.88
2019-04-16T14:19:57.273Z,22.00
2019-04-16T14:22:26.731Z,22.07
2019-04-16T14:24:56.070Z,22.03
2019-04-16T14:27:25.382Z,21.75
2019-04-16T14:29:54.759Z,21.81
2019-04-16T14:32:24.140Z,21.85
2019-04-16T14:34:56.147Z,21.90
2019-04-16T14:37:25.458Z,22.04
2019-04-16T14:40:04.753Z,22.14
2019-04-16T14:42:34.070Z,22.16
2019-04-16T14:45:28.643Z,22.49
2019-04-16T14:47:57.989Z,22.72
2019-04-16T14:50:27.373Z,22.64
2019-04-16T14:52:56.721Z,22.51
2019-04-16T14:55:59.721Z,22.63
2019-04-16T14:58:43.988Z,22.67
2019-04-16T15:01:32.298Z,22.51
2019-04-16T15:04:20.517Z,22.53
2019-04-16T15:07:27.079Z,22.38
2019-04-16T15:10:15.323Z,22.45
2019-04-16T15:13:09.585Z,22.25
2019-04-16T15:15:43.355Z,21.87
2019-04-16T15:18:37.597Z,21.99
2019-04-16T15:21:24.610Z,22.10
2019-04-16T15:24:25.109Z,22.07
2019-04-16T15:27:12.214Z,22.26
2019-04-16T15:29:47.345Z,21.95
2019-04-16T15:32:47.677Z,22.05
2019-04-16T15:35:38.816Z,21.91
2019-04-16T15:38:26.626Z,21.95
2019-04-16T15:40:58.322Z,21.91
2019-04-16T15:43:50.368Z,21.70
2019-04-16T15:46:35.261Z,21.52
2019-04-16T15:49:27.812Z,21.57
2019-04-16T15:52:14.943Z,21.43
2019-04-16T15:55:05.950Z,21.33
2019-04-16T15:57:42.693Z,21.16
2019-04-16T16:00:31.469Z,21.03
2019-04-16T16:03:19.713Z,21.11
2019-04-16T16:05:57.077Z,21.06
2019-04-16T16:08:35.843Z,21.02
2019-04-16T16:11:07.961Z,20.97
2019-04-16T16:45:06.404Z,20.54
2019-04-16T16:47:39.863Z,20.53
2019-04-16T16:50:12.847Z,20.54
2019-04-16T17:04:38.393Z,20.30
2019-04-16T17:07:07.789Z,20.28
2019-04-16T17:09:37.369Z,20.23
2019-04-16T17:12:06.766Z,20.21
2019-04-16T17:14:38.660Z,20.17
2019-04-16T17:17:14.350Z,20.17
2019-04-16T17:19:40.942Z,20.14
2019-04-16T17:22:14.703Z,20.12
2019-04-16T17:24:45.176Z,20.07
2019-04-16T17:27:14.685Z,19.99
2019-04-16T17:29:46.587Z,19.97
2019-04-16T17:32:15.209Z,19.86
2019-04-16T17:34:44.677Z,19.83
2019-04-16T17:37:14.112Z,19.84
2019-04-16T17:39:53.382Z,19.70
2019-04-16T17:42:28.907Z,19.43
2019-04-16T17:45:16.096Z,19.37
2019-04-16T17:48:10.545Z,19.18
2019-04-16T17:51:02.240Z,18.98
2019-04-16T17:53:56.711Z,18.90
2019-04-16T17:56:43.844Z,18.63
2019-04-16T17:59:29.045Z,18.63
2019-04-16T18:02:19.732Z,18.41
2019-04-16T18:04:57.990Z,18.50
2019-04-16T18:07:44.977Z,18.36
2019-04-16T18:10:39.535Z,18.32
2019-04-16T18:14:22.103Z,18.23
2019-04-16T18:16:58.425Z,18.15
2019-04-16T18:19:45.353Z,18.06
2019-04-16T18:22:23.835Z,17.99
2019-04-16T18:25:10.847Z,17.96
2019-04-16T18:27:52.714Z,17.88
2019-04-16T18:30:46.841Z,17.88
2019-04-16T18:33:32.837Z,17.88
2019-04-16T18:36:19.989Z,17.91
2019-04-16T18:39:08.577Z,17.83
2019-04-16T18:41:50.980Z,17.80
2019-04-16T18:44:57.913Z,17.72
2019-04-16T18:48:04.670Z,17.61
2019-04-16T18:50:31.469Z,17.53
2019-04-16T18:57:40.845Z,17.41
2019-04-16T19:00:33.200Z,17.38
2019-04-16T19:03:42.423Z,17.25
2019-04-16T19:06:11.516Z,17.18
2019-04-16T19:08:42.376Z,17.08
2019-04-16T19:11:20.232Z,17.06
2019-04-16T19:13:54.938Z,17.00
2019-04-16T19:16:23.961Z,17.00
2019-04-16T19:19:04.851Z,16.99
2019-04-16T19:21:55.611Z,16.94
2019-04-16T19:24:32.177Z,16.93
2019-04-16T19:37:33.196Z,16.52
2019-04-16T19:40:03.712Z,16.16
2019-04-16T19:42:33.351Z,16.05
2019-04-16T19:45:03.193Z,15.96
2019-04-16T19:47:35.340Z,16.06
2019-04-16T19:50:04.573Z,16.11
2019-04-16T21:51:24.276Z,14.37
2019-04-16T21:53:57.354Z,14.30
2019-04-16T21:56:25.062Z,14.20
2019-04-16T21:59:13.544Z,14.10
2019-04-16T22:01:45.344Z,14.15
2019-04-16T22:05:05.514Z,14.07
2019-04-16T22:07:34.844Z,13.95
2019-04-16T22:10:04.451Z,13.92
2019-04-16T22:12:33.792Z,13.91
2019-04-16T22:15:07.464Z,13.95
2019-04-16T22:17:36.884Z,13.88
2019-04-16T22:20:06.979Z,13.96
2019-04-16T22:22:37.821Z,13.94
2019-04-16T22:25:07.904Z,13.81
2019-04-16T22:27:39.661Z,13.75
2019-04-16T22:30:08.508Z,13.77
2019-04-16T22:32:37.963Z,13.65
2019-04-16T22:35:07.975Z,13.57
2019-04-16T22:37:37.419Z,13.50
2019-04-16T22:40:45.723Z,13.48
2019-04-16T22:43:32.570Z,13.38
2019-04-16T22:46:24.129Z,13.40
2019-04-16T22:49:00.803Z,13.37
2019-04-16T22:51:30.133Z,13.44
2019-04-16T22:53:59.435Z,13.48
2019-04-16T22:56:57.831Z,13.51
2019-04-16T22:59:28.391Z,13.49
2019-04-16T23:01:57.765Z,13.42
2019-04-16T23:04:27.148Z,13.35
2019-04-16T23:06:56.707Z,13.30
2019-04-16T23:09:27.242Z,13.28
2019-04-16T23:11:57.184Z,13.26
2019-04-16T23:14:26.560Z,13.22
2019-04-16T23:16:55.944Z,13.21
2019-04-16T23:19:25.300Z,13.18
2019-04-16T23:21:54.633Z,13.11
2019-04-16T23:24:24.235Z,13.09
2019-04-16T23:26:53.569Z,13.08
2019-04-16T23:29:22.887Z,12.98
2019-04-16T23:31:55.169Z,12.91
2019-04-16T23:34:23.246Z,12.90
2019-04-16T23:36:52.577Z,12.90
2019-04-16T23:39:21.864Z,12.87
2019-04-16T23:41:51.167Z,12.83
2019-04-16T23:44:48.729Z,12.82
2019-04-16T23:47:35.826Z,12.81
2019-04-16T23:50:27.177Z,12.84
2019-04-16T23:53:03.814Z,12.82
2019-04-16T23:55:58.270Z,12.64
2019-04-16T23:58:41.358Z,12.59
